F/V Berriz Patxiku — ECES — position and weather

sailwx.info

Track history (hours):
 
Tides and Currents Weather Stations Pressure Air Temp Water Temp Dewpoint Dewpoint Depression Visibility Wind Speed Wind Dir Waves Ship Positions

F/V Berriz Patxiku

Last reported at 2015-Mar-04 00:05 UTC. Time now 2015-Mar-05 10:25 UTC.
Position N 43°19' W 002°10'.

Length 30 m.

Type: Fishing. MMSI: 224106260.

Date/timePositionNaut miles runAvg speedWind from/ knotsBaromVisibWave heightAir tempDewpointWater temp
2015-Mar-04 00:05N 43°19' W 002°10'7 9.3
2015-Mar-03 23:20N 43°25' W 002°04'5 6.4
2015-Mar-03 22:32N 43°29' W 002°00'14 2.3
2015-Mar-03 16:28N 43°18' W 002°12'0 0.0
2015-Mar-03 15:32N 43°18' W 002°12'0 0.0
2015-Mar-03 14:16N 43°18' W 002°12'0 0.0
2015-Mar-03 13:33N 43°18' W 002°12'0 0.0
2015-Mar-03 12:31N 43°18' W 002°12'0 0.0
2015-Mar-03 10:23N 43°18' W 002°12'0 0.0
2015-Mar-03 08:24N 43°18' W 002°12'0 0.0
2015-Mar-03 05:07N 43°18' W 002°12'0 0.0
2015-Mar-03 04:24N 43°18' W 002°12'0 0.0
2015-Mar-03 03:21N 43°18' W 002°12'6 5.8
2015-Mar-03 02:15N 43°24' W 002°07'9 7.8
2015-Mar-03 01:05N 43°32' W 002°01'  
Track history (hours):
 
Tides and Currents Weather Stations Pressure Air Temp Water Temp Dewpoint Dewpoint Depression Visibility Wind Speed Wind Dir Waves Ship Positions

F/V Berriz Patxiku

Last reported at 2015-Mar-04 00:05 UTC. Time now 2015-Mar-05 10:25 UTC.
Position N 43°19' W 002°10'.

Length 30 m.

Type: Fishing. MMSI: 224106260.

Date/timePositionNaut miles runAvg speedWind from/ knotsBaromVisibWave heightAir tempDewpointWater temp
2015-Mar-04 00:05N 43°19' W 002°10'7 9.3
2015-Mar-03 23:20N 43°25' W 002°04'5 6.4
2015-Mar-03 22:32N 43°29' W 002°00'14 2.3
2015-Mar-03 16:28N 43°18' W 002°12'0 0.0
2015-Mar-03 15:32N 43°18' W 002°12'0 0.0
2015-Mar-03 14:16N 43°18' W 002°12'0 0.0
2015-Mar-03 13:33N 43°18' W 002°12'0 0.0
2015-Mar-03 12:31N 43°18' W 002°12'0 0.0
2015-Mar-03 10:23N 43°18' W 002°12'0 0.0
2015-Mar-03 08:24N 43°18' W 002°12'0 0.0
2015-Mar-03 05:07N 43°18' W 002°12'0 0.0
2015-Mar-03 04:24N 43°18' W 002°12'0 0.0
2015-Mar-03 03:21N 43°18' W 002°12'6 5.8
2015-Mar-03 02:15N 43°24' W 002°07'9 7.8
2015-Mar-03 01:05N 43°32' W 002°01'  

Dump ship's entire track history